createdAt,value
2018-05-21T00:00:15.138Z,0.00
2018-05-21T00:00:50.816Z,0.00
2018-05-21T00:01:26.636Z,0.00
2018-05-21T00:02:02.215Z,0.00
2018-05-21T00:02:37.787Z,0.00
2018-05-21T00:03:13.062Z,0.00
2018-05-21T00:03:48.540Z,0.00
2018-05-21T00:04:23.982Z,0.00
2018-05-21T00:04:59.760Z,0.00
2018-05-21T00:05:37.933Z,0.00
2018-05-21T00:06:13.505Z,0.00
2018-05-21T00:06:48.993Z,0.00
2018-05-21T00:07:24.310Z,0.00
2018-05-21T00:08:00.647Z,0.00
2018-05-21T00:08:35.818Z,0.00
2018-05-21T00:09:11.072Z,0.00
2018-05-21T00:09:46.355Z,0.00
2018-05-21T00:10:21.640Z,0.00
2018-05-21T00:10:57.636Z,0.00
2018-05-21T00:11:33.092Z,0.00
2018-05-21T00:12:08.961Z,0.00
2018-05-21T00:12:44.402Z,0.00
2018-05-21T00:13:19.675Z,0.00
2018-05-21T00:13:54.937Z,0.00
2018-05-21T00:14:30.487Z,0.00
2018-05-21T00:15:05.920Z,0.00
2018-05-21T00:15:41.765Z,0.00
2018-05-21T00:16:17.322Z,0.00
2018-05-21T00:16:52.829Z,0.00
2018-05-21T00:17:28.269Z,0.00
2018-05-21T00:18:03.876Z,0.00
2018-05-21T00:18:39.107Z,0.00
2018-05-21T00:19:14.415Z,0.00
2018-05-21T00:19:49.777Z,0.00
2018-05-21T00:20:25.412Z,0.00
2018-05-21T00:21:00.600Z,0.00
2018-05-21T00:21:36.207Z,0.00
2018-05-21T00:22:11.660Z,0.00
2018-05-21T00:22:47.052Z,0.00
2018-05-21T00:23:22.322Z,0.00
2018-05-21T00:23:57.879Z,0.00
2018-05-21T00:24:33.133Z,0.00
2018-05-21T00:25:08.649Z,0.00
2018-05-21T00:25:45.484Z,0.00
2018-05-21T00:26:21.158Z,0.00
2018-05-21T00:26:56.214Z,0.00
2018-05-21T00:27:31.919Z,0.00
2018-05-21T00:28:07.082Z,0.00
2018-05-21T00:28:42.575Z,0.00
2018-05-21T00:29:17.857Z,0.00
2018-05-21T00:29:53.244Z,0.00
2018-05-21T00:30:28.513Z,0.00
2018-05-21T00:31:03.890Z,0.00
2018-05-21T00:31:39.329Z,0.00
2018-05-21T00:32:15.014Z,0.00
2018-05-21T00:32:50.362Z,0.00
2018-05-21T00:33:25.764Z,0.00
2018-05-21T00:34:01.262Z,0.00
2018-05-21T00:34:36.736Z,0.00
2018-05-21T00:35:12.436Z,0.00
2018-05-21T00:35:47.850Z,0.00
2018-05-21T00:36:23.251Z,0.00
2018-05-21T00:36:58.460Z,0.00
2018-05-21T00:37:34.019Z,0.00
2018-05-21T00:38:09.416Z,0.00
2018-05-21T00:38:44.669Z,0.00
2018-05-21T00:39:20.256Z,0.00
2018-05-21T00:39:55.412Z,0.00
2018-05-21T00:40:31.213Z,0.00
2018-05-21T00:41:06.566Z,0.00
2018-05-21T00:41:42.239Z,0.00
2018-05-21T00:42:17.473Z,0.00
2018-05-21T00:42:55.774Z,0.00
2018-05-21T00:43:31.036Z,0.00
2018-05-21T00:44:06.497Z,0.00
2018-05-21T00:44:42.149Z,0.00
2018-05-21T00:45:17.972Z,0.00
2018-05-21T00:45:53.131Z,0.00
2018-05-21T00:46:28.414Z,0.00
2018-05-21T00:47:03.583Z,0.00
2018-05-21T00:47:39.182Z,0.00
2018-05-21T00:48:14.741Z,0.00
2018-05-21T00:48:49.940Z,0.00
2018-05-21T00:49:25.165Z,0.00
2018-05-21T00:50:00.382Z,0.00
2018-05-21T00:50:36.282Z,0.00
2018-05-21T00:51:11.756Z,0.00
2018-05-21T00:51:46.995Z,0.00
2018-05-21T00:52:22.674Z,0.00
2018-05-21T00:52:58.107Z,0.00
2018-05-21T00:53:33.693Z,0.00
2018-05-21T00:54:08.937Z,0.00
2018-05-21T00:54:44.441Z,0.00
2018-05-21T00:55:19.910Z,0.00
2018-05-21T00:55:55.206Z,0.00
2018-05-21T00:56:30.744Z,0.00
2018-05-21T00:57:06.159Z,0.00
2018-05-21T00:57:41.637Z,0.00
2018-05-21T00:58:16.926Z,0.00
2018-05-21T00:58:52.793Z,0.00
2018-05-21T00:59:28.361Z,0.00
2018-05-21T01:00:03.740Z,0.00
2018-05-21T01:00:39.632Z,0.00
2018-05-21T01:01:14.997Z,0.00
2018-05-21T01:01:50.281Z,0.00
2018-05-21T01:02:25.712Z,0.00
2018-05-21T01:03:01.085Z,0.00
2018-05-21T01:03:36.518Z,0.00
2018-05-21T01:04:12.092Z,0.00
2018-05-21T01:04:47.872Z,0.00
2018-05-21T01:05:23.288Z,0.00
2018-05-21T01:05:58.928Z,0.00
2018-05-21T01:06:34.311Z,0.00
2018-05-21T01:07:10.269Z,0.00
2018-05-21T01:07:45.437Z,0.00
2018-05-21T01:08:23.995Z,0.00
2018-05-21T01:08:59.465Z,0.00
2018-05-21T01:09:35.126Z,0.00
2018-05-21T01:10:11.722Z,0.00
2018-05-21T01:10:47.074Z,0.00
2018-05-21T01:11:22.546Z,0.00
2018-05-21T01:11:57.883Z,0.00
2018-05-21T01:12:33.465Z,0.00
2018-05-21T01:13:09.508Z,0.00
2018-05-21T01:13:45.197Z,0.00
2018-05-21T01:14:20.854Z,0.00
2018-05-21T01:14:56.971Z,0.00
2018-05-21T01:15:32.456Z,0.00
2018-05-21T01:16:08.034Z,0.00
2018-05-21T01:16:44.272Z,0.00
2018-05-21T01:17:19.668Z,0.00
2018-05-21T01:17:55.222Z,0.00
2018-05-21T01:18:30.406Z,0.00
2018-05-21T01:19:06.250Z,0.00
2018-05-21T01:19:41.826Z,0.00
2018-05-21T01:20:18.615Z,0.00
2018-05-21T01:20:54.115Z,0.00
2018-05-21T01:21:29.680Z,0.00
2018-05-21T01:22:05.468Z,0.00
2018-05-21T01:22:40.628Z,0.00
2018-05-21T01:23:16.334Z,0.00
2018-05-21T01:23:53.982Z,0.00
2018-05-21T01:24:29.475Z,0.00
2018-05-21T01:25:04.725Z,0.00
2018-05-21T01:25:40.254Z,0.00
2018-05-21T01:26:15.803Z,0.00
2018-05-21T01:26:50.969Z,0.00
2018-05-21T01:27:26.439Z,0.00
2018-05-21T01:28:02.001Z,0.00
2018-05-21T01:28:37.347Z,0.00
2018-05-21T01:29:12.946Z,0.00
2018-05-21T01:29:48.310Z,0.00
2018-05-21T01:30:23.735Z,0.00
2018-05-21T01:30:58.775Z,0.00
2018-05-21T01:31:34.558Z,0.00
2018-05-21T01:32:09.992Z,0.00
2018-05-21T01:32:45.577Z,0.00
2018-05-21T01:33:21.045Z,0.00
2018-05-21T01:33:56.319Z,0.00
2018-05-21T01:34:31.769Z,0.00
2018-05-21T01:35:07.273Z,0.00
2018-05-21T01:35:42.750Z,0.00
2018-05-21T01:36:18.554Z,0.00
2018-05-21T01:36:54.209Z,0.00
2018-05-21T01:37:29.996Z,0.00
2018-05-21T01:38:05.340Z,0.00
2018-05-21T01:38:41.038Z,0.00
2018-05-21T01:39:16.207Z,0.00
2018-05-21T01:39:51.695Z,0.00
2018-05-21T01:40:27.014Z,0.00
2018-05-21T01:41:02.605Z,0.00
2018-05-21T01:41:38.060Z,0.00
2018-05-21T01:42:13.642Z,0.00
2018-05-21T01:42:49.118Z,0.00
2018-05-21T01:43:24.494Z,0.00
2018-05-21T01:43:59.932Z,0.00
2018-05-21T01:44:35.610Z,0.00
2018-05-21T01:45:11.303Z,0.00
2018-05-21T01:45:46.499Z,0.00
2018-05-21T01:46:21.544Z,0.00
2018-05-21T01:46:57.050Z,0.00
2018-05-21T01:47:32.576Z,0.00
2018-05-21T01:48:08.149Z,0.00
2018-05-21T01:48:43.579Z,0.00
2018-05-21T01:49:19.353Z,0.00
2018-05-21T01:49:54.679Z,0.00
2018-05-21T01:50:30.175Z,0.00
2018-05-21T01:51:05.641Z,0.00
2018-05-21T01:51:41.308Z,0.00
2018-05-21T01:52:16.864Z,0.00
2018-05-21T01:52:52.261Z,0.00
2018-05-21T01:53:27.821Z,0.00
2018-05-21T01:54:03.096Z,0.00
2018-05-21T01:54:38.662Z,0.00
2018-05-21T01:55:14.000Z,0.00
2018-05-21T01:55:49.245Z,0.00
2018-05-21T01:56:24.894Z,0.00
2018-05-21T01:57:00.250Z,0.00
2018-05-21T01:57:35.545Z,0.00
2018-05-21T01:58:11.135Z,0.00
2018-05-21T01:58:46.748Z,0.00
2018-05-21T01:59:22.282Z,0.00
2018-05-21T01:59:57.461Z,0.00
2018-05-21T02:00:33.144Z,0.00
2018-05-21T02:01:08.747Z,0.00
2018-05-21T02:01:44.104Z,0.00
2018-05-21T02:02:19.472Z,0.00
2018-05-21T02:02:54.715Z,0.00
2018-05-21T02:03:30.210Z,0.00
2018-05-21T02:04:05.684Z,0.00
2018-05-21T02:04:41.085Z,0.00
2018-05-21T02:05:16.577Z,0.00
2018-05-21T02:05:51.958Z,0.00
2018-05-21T02:06:27.324Z,0.00
2018-05-21T02:07:02.640Z,0.00
2018-05-21T02:07:38.277Z,0.00
2018-05-21T02:08:13.665Z,0.00
2018-05-21T02:08:49.105Z,0.00
2018-05-21T02:09:24.393Z,0.00
2018-05-21T02:09:59.771Z,0.00
2018-05-21T02:10:35.197Z,0.00
2018-05-21T02:11:10.845Z,0.00
2018-05-21T02:11:46.259Z,0.00
2018-05-21T02:12:21.708Z,0.00
2018-05-21T02:12:57.126Z,0.00
2018-05-21T02:13:32.457Z,0.00
2018-05-21T02:14:08.071Z,0.00
2018-05-21T02:14:43.425Z,0.00
2018-05-21T02:15:18.955Z,0.00
2018-05-21T02:15:54.217Z,0.00
2018-05-21T02:16:29.719Z,0.00
2018-05-21T02:17:04.778Z,0.00
2018-05-21T02:17:40.049Z,0.00
2018-05-21T02:18:15.553Z,0.00
2018-05-21T02:18:51.028Z,0.00
2018-05-21T02:19:26.273Z,0.00
2018-05-21T02:20:01.879Z,0.00
2018-05-21T02:20:37.472Z,0.00
2018-05-21T02:21:12.775Z,0.00
2018-05-21T02:21:48.048Z,0.00
2018-05-21T02:22:23.536Z,0.00
2018-05-21T02:22:58.977Z,0.00
2018-05-21T02:23:34.789Z,0.00
2018-05-21T02:24:10.090Z,0.00
2018-05-21T02:24:45.469Z,0.00
2018-05-21T02:25:20.956Z,0.00
2018-05-21T02:25:56.428Z,0.00
2018-05-21T02:26:33.470Z,0.00
2018-05-21T02:27:08.879Z,0.00
2018-05-21T02:27:44.111Z,0.00
2018-05-21T02:28:19.787Z,0.00
2018-05-21T02:28:55.178Z,0.00
2018-05-21T02:29:30.569Z,0.00
2018-05-21T02:30:06.036Z,0.00
2018-05-21T02:30:42.038Z,0.00
2018-05-21T02:31:17.693Z,0.00
2018-05-21T02:31:52.986Z,0.00
2018-05-21T02:32:28.337Z,0.00
2018-05-21T02:33:03.854Z,0.00
2018-05-21T02:33:39.100Z,0.00
2018-05-21T02:34:14.699Z,0.00
2018-05-21T02:34:49.946Z,0.00
2018-05-21T02:35:25.359Z,0.00
2018-05-21T02:36:01.022Z,0.00
2018-05-21T02:36:36.415Z,0.00
2018-05-21T02:37:12.067Z,0.00
2018-05-21T02:37:47.240Z,0.00
2018-05-21T02:38:22.379Z,0.00
2018-05-21T02:39:01.991Z,0.00
2018-05-21T02:39:36.468Z,0.00
2018-05-21T02:40:11.867Z,0.00
2018-05-21T02:40:50.337Z,0.00
2018-05-21T02:41:25.651Z,0.00
2018-05-21T02:42:01.035Z,0.00
2018-05-21T02:42:36.228Z,0.00
2018-05-21T02:43:11.776Z,0.00
2018-05-21T02:43:47.363Z,0.00
2018-05-21T02:44:22.940Z,0.00
2018-05-21T02:44:58.535Z,0.00
2018-05-21T02:45:34.029Z,0.00
2018-05-21T02:46:09.412Z,0.00
2018-05-21T02:46:44.845Z,0.00
2018-05-21T02:47:20.251Z,0.00
2018-05-21T02:47:55.955Z,0.00
2018-05-21T02:48:31.324Z,0.00
2018-05-21T02:49:06.880Z,0.00
2018-05-21T02:49:42.564Z,0.00
2018-05-21T02:50:18.058Z,0.00
2018-05-21T02:50:53.340Z,0.00
2018-05-21T02:51:28.724Z,0.00
2018-05-21T02:52:04.127Z,0.00
2018-05-21T02:52:40.093Z,0.00
2018-05-21T02:53:15.359Z,0.00
2018-05-21T02:53:50.736Z,0.00
2018-05-21T02:54:25.902Z,0.00
2018-05-21T02:55:01.357Z,4.00
2018-05-21T02:55:36.860Z,4.00
2018-05-21T02:56:12.417Z,4.00
2018-05-21T02:56:47.886Z,4.00
2018-05-21T02:57:23.354Z,4.00
2018-05-21T02:57:58.630Z,4.00
2018-05-21T02:58:33.883Z,0.00
2018-05-21T02:59:09.198Z,4.00
2018-05-21T02:59:44.467Z,4.00
2018-05-21T03:00:20.078Z,4.00
2018-05-21T03:00:55.353Z,4.00
2018-05-21T03:01:31.144Z,8.00
2018-05-21T03:02:06.521Z,4.00
2018-05-21T03:02:41.950Z,4.00
2018-05-21T03:03:17.319Z,8.00
2018-05-21T03:03:52.498Z,8.00
2018-05-21T03:04:28.044Z,4.00
2018-05-21T03:05:03.715Z,8.00
2018-05-21T03:05:39.183Z,8.00
2018-05-21T03:06:14.652Z,12.00
2018-05-21T03:06:50.197Z,8.00
2018-05-21T03:07:25.486Z,12.00
2018-05-21T03:08:01.078Z,12.00
2018-05-21T03:08:36.640Z,12.00
2018-05-21T03:09:12.285Z,16.00
2018-05-21T03:09:47.762Z,16.00
2018-05-21T03:10:23.248Z,16.00
2018-05-21T03:10:58.425Z,16.00
2018-05-21T03:11:33.952Z,20.00
2018-05-21T03:12:09.248Z,20.00
2018-05-21T03:12:44.698Z,24.00
2018-05-21T03:13:20.196Z,24.00
2018-05-21T03:13:55.778Z,24.00
2018-05-21T03:14:31.166Z,24.00
2018-05-21T03:15:06.956Z,28.00
2018-05-21T03:15:42.437Z,32.00
2018-05-21T03:16:18.011Z,32.00
2018-05-21T03:16:53.589Z,36.00
2018-05-21T03:17:28.959Z,36.00
2018-05-21T03:18:04.540Z,36.00
2018-05-21T03:18:39.960Z,40.00
2018-05-21T03:19:15.645Z,44.00
2018-05-21T03:19:51.322Z,44.00
2018-05-21T03:20:26.643Z,48.00
2018-05-21T03:21:02.093Z,48.00
2018-05-21T03:21:38.017Z,56.00
2018-05-21T03:22:13.490Z,56.00
2018-05-21T03:22:49.062Z,64.00
2018-05-21T03:23:24.722Z,64.00
2018-05-21T03:24:00.221Z,68.00
2018-05-21T03:24:35.476Z,72.00
2018-05-21T03:25:10.990Z,76.00
2018-05-21T03:25:46.535Z,80.00
2018-05-21T03:26:22.027Z,84.00
2018-05-21T03:26:57.492Z,88.00
2018-05-21T03:27:32.993Z,92.00
2018-05-21T03:28:08.455Z,96.00
2018-05-21T03:28:44.066Z,104.00
2018-05-21T03:29:19.379Z,108.00
2018-05-21T03:29:54.764Z,112.00
2018-05-21T03:30:30.328Z,116.00
2018-05-21T03:31:05.797Z,128.00
2018-05-21T03:31:41.098Z,132.00
2018-05-21T03:32:16.324Z,136.00
2018-05-21T03:32:51.542Z,144.00
2018-05-21T03:33:26.936Z,148.00
2018-05-21T03:34:02.411Z,156.00
2018-05-21T03:34:40.148Z,164.00
2018-05-21T03:35:15.382Z,172.00
2018-05-21T03:35:50.577Z,176.00
2018-05-21T03:36:25.879Z,184.00
2018-05-21T03:37:01.301Z,192.00
2018-05-21T03:37:36.685Z,196.00
2018-05-21T03:38:12.167Z,204.00
2018-05-21T03:38:47.604Z,212.00
2018-05-21T03:39:23.095Z,220.00
2018-05-21T03:39:58.765Z,228.00
2018-05-21T03:40:34.495Z,236.00
2018-05-21T03:41:09.848Z,244.00
2018-05-21T03:41:45.326Z,252.00
2018-05-21T03:42:20.772Z,260.00
2018-05-21T03:42:56.305Z,268.00
2018-05-21T03:43:31.475Z,276.00
2018-05-21T03:44:06.894Z,284.00
2018-05-21T03:44:42.062Z,296.00
2018-05-21T03:45:17.460Z,300.00
2018-05-21T03:45:52.924Z,308.00
2018-05-21T03:46:28.544Z,316.00
2018-05-21T03:47:03.985Z,328.00
2018-05-21T03:47:39.372Z,336.00
2018-05-21T03:48:14.822Z,348.00
2018-05-21T03:48:50.215Z,356.00
2018-05-21T03:49:25.800Z,368.00
2018-05-21T03:50:01.326Z,372.00
2018-05-21T03:50:37.267Z,384.00
2018-05-21T03:51:12.667Z,392.00
2018-05-21T03:51:48.027Z,404.00
2018-05-21T03:52:23.435Z,416.00
2018-05-21T03:52:58.871Z,424.00
2018-05-21T03:53:34.269Z,436.00
2018-05-21T03:54:09.608Z,440.00
2018-05-21T03:54:44.774Z,452.00
2018-05-21T03:55:20.235Z,460.00
2018-05-21T03:55:55.724Z,472.00
2018-05-21T03:56:31.161Z,484.00
2018-05-21T03:57:06.566Z,492.00
2018-05-21T03:57:42.046Z,504.00
2018-05-21T03:58:17.789Z,512.00
2018-05-21T03:58:53.165Z,524.00
2018-05-21T03:59:28.673Z,532.00
2018-05-21T04:00:04.059Z,544.00
2018-05-21T04:00:39.956Z,556.00
2018-05-21T04:01:15.107Z,564.00
2018-05-21T04:01:50.825Z,576.00
2018-05-21T04:02:26.060Z,584.00
2018-05-21T04:03:02.418Z,596.00
2018-05-21T04:03:37.679Z,608.00
2018-05-21T04:04:12.954Z,616.00
2018-05-21T04:04:52.487Z,632.00
2018-05-21T04:05:28.084Z,640.00
2018-05-21T04:06:03.754Z,652.00
2018-05-21T04:06:39.431Z,660.00
2018-05-21T04:07:14.593Z,672.00
2018-05-21T04:07:50.481Z,688.00
2018-05-21T04:08:26.135Z,696.00
2018-05-21T04:09:01.322Z,708.00
2018-05-21T04:09:36.885Z,720.00
2018-05-21T04:10:12.392Z,732.00
2018-05-21T04:10:48.654Z,740.00
2018-05-21T04:11:24.227Z,752.00
2018-05-21T04:11:59.710Z,764.00
2018-05-21T04:12:35.862Z,772.00
2018-05-21T04:13:11.521Z,784.00
2018-05-21T04:13:46.887Z,796.00
2018-05-21T04:14:22.276Z,808.00
2018-05-21T04:14:57.574Z,820.00
2018-05-21T04:15:33.125Z,828.00
2018-05-21T04:16:08.704Z,844.00
2018-05-21T04:16:43.759Z,852.00
2018-05-21T04:17:19.046Z,864.00
2018-05-21T04:17:54.591Z,876.00
2018-05-21T04:18:30.277Z,884.00
2018-05-21T04:19:05.519Z,900.00
2018-05-21T04:19:41.115Z,908.00
2018-05-21T04:20:16.682Z,924.00
2018-05-21T04:20:52.276Z,936.00
2018-05-21T04:21:28.165Z,944.00
2018-05-21T04:22:03.630Z,956.00
2018-05-21T04:22:39.184Z,968.00
2018-05-21T04:23:14.379Z,984.00
2018-05-21T04:23:49.818Z,992.00
2018-05-21T04:24:25.283Z,1004.00
2018-05-21T04:25:00.643Z,1016.00
2018-05-21T04:25:36.202Z,1028.00
2018-05-21T04:26:11.718Z,1040.00
2018-05-21T04:26:47.204Z,1052.00
2018-05-21T04:27:22.641Z,1056.00
2018-05-21T04:27:58.208Z,1068.00
2018-05-21T04:28:33.558Z,1084.00
2018-05-21T04:29:09.229Z,1092.00
2018-05-21T04:29:44.670Z,1104.00
2018-05-21T04:30:20.196Z,1112.00
2018-05-21T04:30:55.554Z,1120.00
2018-05-21T04:31:31.015Z,1132.00
2018-05-21T04:32:06.358Z,1144.00
2018-05-21T04:32:41.991Z,1156.00
2018-05-21T04:33:17.350Z,1168.00
2018-05-21T04:33:52.752Z,1184.00
2018-05-21T04:34:28.367Z,1196.00
2018-05-21T04:35:04.003Z,1204.00
2018-05-21T04:35:39.749Z,1216.00
2018-05-21T04:36:15.021Z,1228.00
2018-05-21T04:36:50.245Z,1240.00
2018-05-21T04:37:25.804Z,1252.00
2018-05-21T04:38:01.357Z,1264.00
2018-05-21T04:38:36.665Z,1276.00
2018-05-21T04:39:11.895Z,1288.00
2018-05-21T04:39:47.275Z,1300.00
2018-05-21T04:40:22.560Z,1312.00
2018-05-21T04:40:58.224Z,1324.00
2018-05-21T04:41:33.576Z,1336.00
2018-05-21T04:42:09.151Z,1348.00
2018-05-21T04:42:44.638Z,1360.00
2018-05-21T04:43:19.804Z,1368.00
2018-05-21T04:43:55.049Z,1384.00
2018-05-21T04:44:30.333Z,1396.00
2018-05-21T04:45:05.593Z,1408.00
2018-05-21T04:45:40.975Z,1416.00
2018-05-21T04:46:16.336Z,1432.00
2018-05-21T04:46:51.695Z,1444.00
2018-05-21T04:47:27.199Z,1452.00
2018-05-21T04:48:02.356Z,1464.00
2018-05-21T04:48:37.893Z,1480.00
2018-05-21T04:49:12.992Z,1488.00
2018-05-21T04:49:48.133Z,1500.00
2018-05-21T04:50:23.631Z,1512.00
2018-05-21T04:50:59.062Z,1524.00
2018-05-21T04:51:34.520Z,1536.00
2018-05-21T04:52:10.170Z,1548.00
2018-05-21T04:52:45.566Z,1560.00
2018-05-21T04:53:21.031Z,1576.00
2018-05-21T04:53:56.513Z,1588.00
2018-05-21T04:54:32.202Z,1600.00
2018-05-21T04:55:08.090Z,1616.00
2018-05-21T04:55:43.441Z,1628.00
2018-05-21T04:56:19.026Z,1644.00
2018-05-21T04:56:54.261Z,1660.00
2018-05-21T04:57:29.554Z,1672.00
2018-05-21T04:58:05.290Z,1684.00
2018-05-21T04:58:40.489Z,1700.00
2018-05-21T04:59:15.676Z,1716.00
2018-05-21T04:59:51.045Z,1732.00
2018-05-21T05:00:26.478Z,1748.00
2018-05-21T05:01:01.952Z,1760.00
2018-05-21T05:01:37.411Z,1780.00
2018-05-21T05:02:12.928Z,1792.00
2018-05-21T05:02:48.392Z,1808.00
2018-05-21T05:03:23.795Z,1824.00
2018-05-21T05:03:59.348Z,1836.00
2018-05-21T05:04:34.834Z,1856.00
2018-05-21T05:05:10.220Z,1868.00
2018-05-21T05:05:45.522Z,1884.00
2018-05-21T05:06:21.183Z,1904.00
2018-05-21T05:06:56.657Z,1920.00
2018-05-21T05:07:32.113Z,1936.00
2018-05-21T05:08:07.617Z,1952.00
2018-05-21T05:08:43.022Z,1976.00
2018-05-21T05:09:18.665Z,1996.00
2018-05-21T05:09:54.261Z,2008.00
2018-05-21T05:10:30.002Z,2028.00
2018-05-21T05:11:05.556Z,2052.00
2018-05-21T05:11:41.021Z,2072.00
2018-05-21T05:12:16.381Z,2088.00
2018-05-21T05:12:51.752Z,2104.00
2018-05-21T05:13:27.145Z,2120.00
2018-05-21T05:14:02.535Z,2136.00
2018-05-21T05:14:37.802Z,2152.00
2018-05-21T05:15:13.418Z,2168.00
2018-05-21T05:15:48.992Z,2180.00
2018-05-21T05:16:24.274Z,2196.00
2018-05-21T05:16:59.540Z,2216.00
2018-05-21T05:17:34.934Z,2236.00
2018-05-21T05:18:10.306Z,2252.00
2018-05-21T05:18:45.887Z,2276.00
2018-05-21T05:19:21.472Z,2292.00
2018-05-21T05:19:56.842Z,2308.00
2018-05-21T05:20:32.315Z,2324.00
2018-05-21T05:21:07.817Z,2344.00
2018-05-21T05:21:43.246Z,2360.00
2018-05-21T05:22:18.424Z,2380.00
2018-05-21T05:22:53.687Z,2396.00
2018-05-21T05:23:29.181Z,2416.00
2018-05-21T05:24:04.504Z,2436.00
2018-05-21T05:24:39.877Z,2452.00
2018-05-21T05:25:15.455Z,2472.00
2018-05-21T05:25:50.778Z,2492.00
2018-05-21T05:26:26.449Z,2508.00
2018-05-21T05:27:02.039Z,2528.00
2018-05-21T05:27:37.589Z,2548.00
2018-05-21T05:28:13.081Z,2568.00
2018-05-21T05:28:48.253Z,2584.00
2018-05-21T05:29:23.646Z,2600.00
2018-05-21T05:29:59.008Z,2620.00
2018-05-21T05:30:34.410Z,2636.00
2018-05-21T05:31:10.175Z,2652.00
2018-05-21T05:31:45.546Z,2672.00
2018-05-21T05:32:21.092Z,2688.00
2018-05-21T05:32:56.884Z,2704.00
2018-05-21T05:33:32.323Z,2716.00
2018-05-21T05:34:07.603Z,2736.00
2018-05-21T05:34:43.178Z,2748.00
2018-05-21T05:35:18.587Z,2776.00
2018-05-21T05:35:54.167Z,2788.00
2018-05-21T05:36:29.300Z,2808.00
2018-05-21T05:37:04.561Z,2828.00
2018-05-21T05:37:40.087Z,2844.00
2018-05-21T05:38:15.465Z,2860.00
2018-05-21T05:38:51.283Z,2884.00
2018-05-21T05:39:26.706Z,2888.00
2018-05-21T05:40:01.989Z,2924.00
2018-05-21T05:40:37.428Z,2936.00
2018-05-21T05:41:12.707Z,2960.00
2018-05-21T05:41:48.160Z,2976.00
2018-05-21T05:42:23.670Z,2992.00
2018-05-21T05:42:58.914Z,3008.00
2018-05-21T05:43:34.475Z,3028.00
2018-05-21T05:44:09.713Z,3044.00
2018-05-21T05:44:45.340Z,3060.00
2018-05-21T05:45:20.540Z,3076.00
2018-05-21T05:45:56.223Z,3096.00
2018-05-21T05:46:31.678Z,3116.00
2018-05-21T05:47:07.045Z,3136.00
2018-05-21T05:47:42.901Z,3156.00
2018-05-21T05:48:18.262Z,3176.00
2018-05-21T05:48:53.805Z,3208.00
2018-05-21T05:49:29.342Z,3228.00
2018-05-21T05:50:04.812Z,3244.00
2018-05-21T05:50:40.982Z,3272.00
2018-05-21T05:51:16.116Z,3292.00
2018-05-21T05:51:51.544Z,3316.00
2018-05-21T05:52:26.697Z,3336.00
2018-05-21T05:53:02.091Z,3360.00
2018-05-21T05:53:37.651Z,3384.00
2018-05-21T05:54:13.164Z,3404.00
2018-05-21T05:54:48.603Z,3424.00
2018-05-21T05:55:24.131Z,3448.00
2018-05-21T05:55:59.605Z,3468.00
2018-05-21T05:56:35.076Z,3496.00
2018-05-21T05:57:10.513Z,3508.00
2018-05-21T05:57:46.103Z,3532.00
2018-05-21T05:58:21.487Z,3564.00
2018-05-21T05:58:56.985Z,3580.00
2018-05-21T05:59:32.366Z,3600.00
2018-05-21T06:00:07.958Z,3620.00
2018-05-21T06:00:45.811Z,3648.00
2018-05-21T06:01:21.193Z,3660.00
2018-05-21T06:01:56.654Z,3680.00
2018-05-21T06:02:32.041Z,3700.00
2018-05-21T06:03:07.301Z,3724.00
2018-05-21T06:03:42.687Z,3736.00
2018-05-21T06:04:17.880Z,3764.00
2018-05-21T06:04:53.355Z,3780.00
2018-05-21T06:05:28.711Z,3800.00
2018-05-21T06:06:04.293Z,3820.00
2018-05-21T06:06:39.799Z,3844.00
2018-05-21T06:07:15.386Z,3868.00
2018-05-21T06:07:50.843Z,3892.00
2018-05-21T06:08:26.353Z,3916.00
2018-05-21T06:09:01.623Z,3948.00
2018-05-21T06:09:37.122Z,3976.00
2018-05-21T06:10:12.404Z,4000.00
2018-05-21T06:10:48.178Z,4012.00
2018-05-21T06:11:23.678Z,4068.00
2018-05-21T06:11:58.774Z,4092.00
2018-05-21T06:12:34.922Z,4120.00
2018-05-21T06:13:10.324Z,4156.00
2018-05-21T06:13:45.659Z,4180.00
2018-05-21T06:14:21.193Z,4216.00
2018-05-21T06:14:56.352Z,4244.00
2018-05-21T06:15:31.765Z,4280.00
2018-05-21T06:16:06.920Z,4316.00
2018-05-21T06:16:42.536Z,4348.00
2018-05-21T06:17:18.261Z,4392.00
2018-05-21T06:17:53.630Z,4432.00
2018-05-21T06:18:29.418Z,4472.00
2018-05-21T06:19:04.990Z,4512.00
2018-05-21T06:19:40.484Z,4544.00
2018-05-21T06:20:15.788Z,4576.00
2018-05-21T06:20:54.042Z,4640.00
2018-05-21T06:21:29.437Z,4692.00
2018-05-21T06:22:04.900Z,4712.00
2018-05-21T06:22:43.411Z,4764.00
2018-05-21T06:23:18.857Z,4800.00
2018-05-21T06:23:54.240Z,4844.00
2018-05-21T06:24:29.610Z,4888.00
2018-05-21T06:25:05.328Z,4932.00
2018-05-21T06:25:41.511Z,4980.00
2018-05-21T06:26:16.829Z,5036.00
2018-05-21T06:26:52.300Z,5096.00
2018-05-21T06:27:27.691Z,5156.00
2018-05-21T06:28:03.155Z,5204.00
2018-05-21T06:28:38.637Z,5272.00
2018-05-21T06:29:13.999Z,5344.00
2018-05-21T06:29:51.112Z,5440.00
2018-05-21T06:30:26.587Z,5564.00
2018-05-21T06:31:02.101Z,5688.00
2018-05-21T06:31:37.467Z,5824.00
2018-05-21T06:32:13.071Z,5940.00
2018-05-21T06:32:48.720Z,6036.00
2018-05-21T06:33:24.224Z,6108.00
2018-05-21T06:33:59.943Z,6176.00
2018-05-21T06:34:35.379Z,6236.00
2018-05-21T06:35:10.779Z,6300.00
2018-05-21T06:35:46.179Z,6360.00
2018-05-21T06:36:21.561Z,6392.00
2018-05-21T06:36:57.043Z,6440.00
2018-05-21T06:37:32.387Z,6472.00
2018-05-21T06:38:07.806Z,6512.00
2018-05-21T06:38:43.161Z,6536.00
2018-05-21T06:39:18.237Z,6552.00
2018-05-21T06:39:53.795Z,6584.00
2018-05-21T06:40:29.403Z,6624.00
2018-05-21T06:41:04.977Z,6640.00
2018-05-21T06:41:46.266Z,6684.00
2018-05-21T06:42:21.621Z,6728.00
2018-05-21T06:42:57.018Z,6768.00
2018-05-21T06:43:32.461Z,6800.00
2018-05-21T06:44:07.874Z,6840.00
2018-05-21T06:44:43.171Z,6884.00
2018-05-21T06:45:18.596Z,6956.00
2018-05-21T06:45:54.263Z,7008.00
2018-05-21T06:46:29.852Z,7112.00
2018-05-21T06:47:05.330Z,7236.00
2018-05-21T06:47:40.748Z,7600.00
2018-05-21T06:48:16.298Z,10648.00
2018-05-21T06:48:51.581Z,16960.00
2018-05-21T06:49:26.851Z,23616.00
2018-05-21T06:50:02.559Z,30272.00
2018-05-21T06:50:38.409Z,33184.00
2018-05-21T06:51:14.411Z,33856.00
2018-05-21T06:51:49.675Z,35744.00
2018-05-21T06:52:25.376Z,36480.00
2018-05-21T06:53:00.728Z,38304.00
2018-05-21T06:53:36.393Z,38944.00
2018-05-21T06:54:11.821Z,40160.00
2018-05-21T06:54:47.181Z,40992.00
2018-05-21T06:55:23.933Z,41952.00
2018-05-21T06:55:59.215Z,41664.00
2018-05-21T06:56:34.692Z,42496.00
2018-05-21T06:57:10.150Z,42816.00
2018-05-21T06:57:46.593Z,42944.00
2018-05-21T06:58:22.039Z,42208.00
2018-05-21T06:58:57.200Z,40384.00
2018-05-21T06:59:32.226Z,40224.00
2018-05-21T07:00:07.897Z,39616.00
2018-05-21T07:00:44.944Z,39584.00
2018-05-21T07:01:20.282Z,38784.00
2018-05-21T07:01:58.251Z,37376.00
2018-05-21T07:02:33.861Z,36928.00
2018-05-21T07:03:08.940Z,36128.00
2018-05-21T07:03:45.340Z,36480.00
2018-05-21T07:04:20.573Z,37888.00
2018-05-21T07:04:56.179Z,37440.00
2018-05-21T07:05:31.678Z,38464.00
2018-05-21T07:06:07.209Z,41152.00
2018-05-21T07:06:43.679Z,41024.00
2018-05-21T07:07:18.892Z,39584.00
2018-05-21T07:07:54.722Z,39904.00
2018-05-21T07:08:30.740Z,39296.00
2018-05-21T07:09:06.208Z,39232.00
2018-05-21T07:09:41.501Z,39296.00
2018-05-21T07:10:17.066Z,39808.00
2018-05-21T07:10:58.481Z,39648.00
2018-05-21T07:11:34.147Z,39808.00
2018-05-21T07:12:09.572Z,40256.00
2018-05-21T07:12:45.620Z,39392.00
2018-05-21T07:13:20.772Z,39360.00
2018-05-21T07:13:56.110Z,39616.00
2018-05-21T07:14:31.337Z,40160.00
2018-05-21T07:15:06.851Z,40800.00
2018-05-21T07:15:42.388Z,40448.00
2018-05-21T07:16:17.832Z,40416.00
2018-05-21T07:16:53.175Z,39712.00
2018-05-21T07:17:28.826Z,39648.00
2018-05-21T07:18:04.276Z,38848.00
2018-05-21T07:18:40.325Z,37728.00
2018-05-21T07:19:15.734Z,37024.00
2018-05-21T07:19:51.291Z,36832.00
2018-05-21T07:20:26.626Z,36608.00
2018-05-21T07:21:01.850Z,36608.00
2018-05-21T07:21:37.272Z,36096.00
2018-05-21T07:22:12.810Z,35008.00
2018-05-21T07:22:48.239Z,35456.00
2018-05-21T07:23:23.794Z,35808.00
2018-05-21T07:24:00.432Z,35104.00
2018-05-21T07:24:35.813Z,34848.00
2018-05-21T07:25:11.275Z,35584.00
2018-05-21T07:25:46.515Z,35936.00
2018-05-21T07:26:22.830Z,36544.00
2018-05-21T07:26:58.470Z,35520.00
2018-05-21T07:27:33.772Z,35136.00
2018-05-21T07:28:09.311Z,35456.00
2018-05-21T07:28:44.712Z,34976.00